sensor_id;sensor_type;location;lat;lon;timestamp;pressure;altitude;pressure_sealevel;temperature;humidity
79075;BME280;68476;42.710;23.388;2024-03-02T00:00:01;95051.28;;;6.39;100.00
79075;BME280;68476;42.710;23.388;2024-03-02T00:02:39;95061.66;;;6.42;100.00
79075;BME280;68476;42.710;23.388;2024-03-02T00:05:06;95060.22;;;6.46;100.00
79075;BME280;68476;42.710;23.388;2024-03-02T00:07:31;95064.53;;;6.47;100.00
79075;BME280;68476;42.710;23.388;2024-03-02T00:09:57;95069.16;;;6.40;100.00
79075;BME280;68476;42.710;23.388;2024-03-02T00:12:23;95061.22;;;6.52;100.00
79075;BME280;68476;42.710;23.388;2024-03-02T00:14:48;95062.66;;;6.54;100.00
79075;BME280;68476;42.710;23.388;2024-03-02T00:17:24;95061.19;;;6.58;100.00
79075;BME280;68476;42.710;23.388;2024-03-02T00:19:51;95062.81;;;6.59;100.00
79075;BME280;68476;42.710;23.388;2024-03-02T00:22:16;95051.81;;;6.54;100.00
79075;BME280;68476;42.710;23.388;2024-03-02T00:24:42;95062.81;;;6.59;100.00
79075;BME280;68476;42.710;23.388;2024-03-02T00:27:08;95054.69;;;6.59;100.00
79075;BME280;68476;42.710;23.388;2024-03-02T00:29:40;95054.94;;;6.58;100.00
79075;BME280;68476;42.710;23.388;2024-03-02T00:32:12;95052.44;;;6.56;100.00
79075;BME280;68476;42.710;23.388;2024-03-02T00:34:38;95053.91;;;6.52;100.00
79075;BME280;68476;42.710;23.388;2024-03-02T00:37:04;95049.53;;;6.51;100.00
79075;BME280;68476;42.710;23.388;2024-03-02T00:39:30;95048.31;;;6.47;100.00
79075;BME280;68476;42.710;23.388;2024-03-02T00:41:56;95041.69;;;6.43;100.00
79075;BME280;68476;42.710;23.388;2024-03-02T00:44:25;95043.78;;;6.41;100.00
79075;BME280;68476;42.710;23.388;2024-03-02T00:46:51;95046.28;;;6.36;100.00
79075;BME280;68476;42.710;23.388;2024-03-02T00:49:24;95041.44;;;6.44;100.00
79075;BME280;68476;42.710;23.388;2024-03-02T00:51:52;95050.19;;;6.46;100.00
79075;BME280;68476;42.710;23.388;2024-03-02T00:54:23;95042.28;;;6.52;100.00
79075;BME280;68476;42.710;23.388;2024-03-02T00:56:50;95035.22;;;6.44;100.00
79075;BME280;68476;42.710;23.388;2024-03-02T00:59:16;95040.00;;;6.42;100.00
79075;BME280;68476;42.710;23.388;2024-03-02T01:01:42;95031.25;;;6.46;100.00
79075;BME280;68476;42.710;23.388;2024-03-02T01:04:08;95038.31;;;6.47;100.00
79075;BME280;68476;42.710;23.388;2024-03-02T01:06:37;95027.47;;;6.54;100.00
79075;BME280;68476;42.710;23.388;2024-03-02T01:09:03;95031.41;;;6.58;100.00
79075;BME280;68476;42.710;23.388;2024-03-02T01:11:28;95035.31;;;6.62;100.00
79075;BME280;68476;42.710;23.388;2024-03-02T01:13:55;95039.47;;;6.65;100.00
79075;BME280;68476;42.710;23.388;2024-03-02T01:16:20;95042.78;;;6.67;100.00
79075;BME280;68476;42.710;23.388;2024-03-02T01:18:46;95038.22;;;6.68;100.00
79075;BME280;68476;42.710;23.388;2024-03-02T01:21:12;95031.13;;;6.67;100.00
79075;BME280;68476;42.710;23.388;2024-03-02T01:23:38;95033.19;;;6.71;100.00
79075;BME280;68476;42.710;23.388;2024-03-02T01:26:03;95029.06;;;6.69;100.00
79075;BME280;68476;42.710;23.388;2024-03-02T01:28:29;95030.09;;;6.68;100.00
79075;BME280;68476;42.710;23.388;2024-03-02T01:30:55;95021.13;;;6.67;100.00
79075;BME280;68476;42.710;23.388;2024-03-02T01:33:20;95022.41;;;6.65;100.00
79075;BME280;68476;42.710;23.388;2024-03-02T01:35:46;95021.78;;;6.62;100.00
79075;BME280;68476;42.710;23.388;2024-03-02T01:38:12;95016.19;;;6.57;100.00
79075;BME280;68476;42.710;23.388;2024-03-02T01:40:38;95014.03;;;6.66;100.00
79075;BME280;68476;42.710;23.388;2024-03-02T01:43:04;95014.34;;;6.51;100.00
79075;BME280;68476;42.710;23.388;2024-03-02T01:45:30;95014.38;;;6.44;100.00
79075;BME280;68476;42.710;23.388;2024-03-02T01:47:56;95012.91;;;6.48;100.00
79075;BME280;68476;42.710;23.388;2024-03-02T01:50:29;95011.22;;;6.54;100.00
79075;BME280;68476;42.710;23.388;2024-03-02T01:52:56;95005.00;;;6.47;100.00
79075;BME280;68476;42.710;23.388;2024-03-02T01:55:21;95012.69;;;6.50;100.00
79075;BME280;68476;42.710;23.388;2024-03-02T01:57:48;95008.78;;;6.46;100.00
79075;BME280;68476;42.710;23.388;2024-03-02T02:00:14;95014.34;;;6.51;100.00
79075;BME280;68476;42.710;23.388;2024-03-02T02:02:40;95010.47;;;6.40;100.00
79075;BME280;68476;42.710;23.388;2024-03-02T02:05:06;95013.75;;;6.42;100.00
79075;BME280;68476;42.710;23.388;2024-03-02T02:07:32;95017.47;;;6.48;100.00
79075;BME280;68476;42.710;23.388;2024-03-02T02:09:58;95015.75;;;6.60;100.00
79075;BME280;68476;42.710;23.388;2024-03-02T02:12:24;95012.03;;;6.55;100.00
79075;BME280;68476;42.710;23.388;2024-03-02T02:14:50;95013.69;;;6.56;100.00
79075;BME280;68476;42.710;23.388;2024-03-02T02:17:18;95007.03;;;6.58;100.00
79075;BME280;68476;42.710;23.388;2024-03-02T02:19:43;95008.84;;;6.65;100.00
79075;BME280;68476;42.710;23.388;2024-03-02T02:22:12;95005.81;;;6.54;100.00
79075;BME280;68476;42.710;23.388;2024-03-02T02:24:41;95005.19;;;6.52;100.00
79075;BME280;68476;42.710;23.388;2024-03-02T02:27:09;95008.66;;;6.59;100.00
79075;BME280;68476;42.710;23.388;2024-03-02T02:29:35;95008.09;;;6.57;100.00
79075;BME280;68476;42.710;23.388;2024-03-02T02:32:01;95008.47;;;6.61;100.00
79075;BME280;68476;42.710;23.388;2024-03-02T02:34:27;95005.97;;;6.59;100.00
79075;BME280;68476;42.710;23.388;2024-03-02T02:36:53;95004.91;;;6.60;100.00
79075;BME280;68476;42.710;23.388;2024-03-02T02:39:20;95006.16;;;6.65;100.00
79075;BME280;68476;42.710;23.388;2024-03-02T02:41:46;95010.94;;;6.62;100.00
79075;BME280;68476;42.710;23.388;2024-03-02T02:44:12;95010.56;;;6.59;100.00
79075;BME280;68476;42.710;23.388;2024-03-02T02:46:40;95010.34;;;6.60;100.00
79075;BME280;68476;42.710;23.388;2024-03-02T02:49:05;95007.03;;;6.58;100.00
79075;BME280;68476;42.710;23.388;2024-03-02T02:51:31;95011.38;;;6.59;100.00
79075;BME280;68476;42.710;23.388;2024-03-02T02:53:56;95017.03;;;6.58;100.00
79075;BME280;68476;42.710;23.388;2024-03-02T02:56:22;95012.06;;;6.48;100.00
79075;BME280;68476;42.710;23.388;2024-03-02T02:58:48;95011.66;;;6.51;100.00
79075;BME280;68476;42.710;23.388;2024-03-02T03:01:14;95003.75;;;6.50;100.00
79075;BME280;68476;42.710;23.388;2024-03-02T03:03:40;95002.50;;;6.45;100.00
79075;BME280;68476;42.710;23.388;2024-03-02T03:06:06;95008.38;;;6.36;100.00
79075;BME280;68476;42.710;23.388;2024-03-02T03:08:31;95007.06;;;6.52;100.00
79075;BME280;68476;42.710;23.388;2024-03-02T03:10:57;95010.88;;;6.44;100.00
79075;BME280;68476;42.710;23.388;2024-03-02T03:13:22;95009.63;;;6.40;100.00
79075;BME280;68476;42.710;23.388;2024-03-02T03:15:48;95006.69;;;6.41;100.00
79075;BME280;68476;42.710;23.388;2024-03-02T03:18:13;94999.66;;;6.40;100.00
79075;BME280;68476;42.710;23.388;2024-03-02T03:20:39;95005.09;;;6.34;100.00
79075;BME280;68476;42.710;23.388;2024-03-02T03:23:04;95001.41;;;6.21;100.00
79075;BME280;68476;42.710;23.388;2024-03-02T03:25:30;95008.91;;;6.19;100.00
79075;BME280;68476;42.710;23.388;2024-03-02T03:27:55;95008.69;;;6.14;100.00
79075;BME280;68476;42.710;23.388;2024-03-02T03:30:21;95003.09;;;6.15;100.00
79075;BME280;68476;42.710;23.388;2024-03-02T03:32:46;95008.09;;;6.12;100.00
79075;BME280;68476;42.710;23.388;2024-03-02T03:35:13;95009.72;;;6.20;100.00
79075;BME280;68476;42.710;23.388;2024-03-02T03:37:40;95017.03;;;6.19;100.00
79075;BME280;68476;42.710;23.388;2024-03-02T03:40:06;95014.28;;;6.26;100.00
79075;BME280;68476;42.710;23.388;2024-03-02T03:42:38;95001.38;;;6.28;100.00
79075;BME280;68476;42.710;23.388;2024-03-02T03:45:05;95009.06;;;6.24;100.00
79075;BME280;68476;42.710;23.388;2024-03-02T03:47:34;95013.25;;;6.27;100.00
79075;BME280;68476;42.710;23.388;2024-03-02T03:49:59;95006.38;;;6.24;100.00
79075;BME280;68476;42.710;23.388;2024-03-02T03:52:25;95000.94;;;6.24;100.00
79075;BME280;68476;42.710;23.388;2024-03-02T03:54:50;95001.78;;;6.25;100.00
79075;BME280;68476;42.710;23.388;2024-03-02T03:57:16;95000.94;;;6.24;100.00
79075;BME280;68476;42.710;23.388;2024-03-02T03:59:42;95002.63;;;6.25;100.00
79075;BME280;68476;42.710;23.388;2024-03-02T04:02:08;94997.44;;;6.24;100.00
79075;BME280;68476;42.710;23.388;2024-03-02T04:04:34;95008.03;;;6.25;100.00
79075;BME280;68476;42.710;23.388;2024-03-02T04:07:00;95003.06;;;6.22;100.00
79075;BME280;68476;42.710;23.388;2024-03-02T04:09:25;95005.53;;;6.24;100.00
79075;BME280;68476;42.710;23.388;2024-03-02T04:11:51;94996.41;;;6.18;100.00
79075;BME280;68476;42.710;23.388;2024-03-02T04:14:17;94997.03;;;6.20;100.00
79075;BME280;68476;42.710;23.388;2024-03-02T04:16:42;95003.28;;;6.14;100.00
79075;BME280;68476;42.710;23.388;2024-03-02T04:19:08;95003.69;;;6.17;100.00
79075;BME280;68476;42.710;23.388;2024-03-02T04:21:33;94999.94;;;6.19;100.00
79075;BME280;68476;42.710;23.388;2024-03-02T04:23:58;95009.09;;;6.17;100.00
79075;BME280;68476;42.710;23.388;2024-03-02T04:26:27;94999.75;;;6.20;100.00
79075;BME280;68476;42.710;23.388;2024-03-02T04:28:53;95009.72;;;6.20;100.00
79075;BME280;68476;42.710;23.388;2024-03-02T04:31:19;95009.09;;;6.17;100.00
79075;BME280;68476;42.710;23.388;2024-03-02T04:33:45;95009.09;;;6.17;100.00
79075;BME280;68476;42.710;23.388;2024-03-02T04:36:10;95007.66;;;6.15;100.00
79075;BME280;68476;42.710;23.388;2024-03-02T04:38:37;95011.63;;;6.12;100.00
79075;BME280;68476;42.710;23.388;2024-03-02T04:41:04;95006.00;;;6.14;100.00
79075;BME280;68476;42.710;23.388;2024-03-02T04:43:31;95005.38;;;6.12;100.00
79075;BME280;68476;42.710;23.388;2024-03-02T04:45:58;95015.78;;;6.15;100.00
79075;BME280;68476;42.710;23.388;2024-03-02T04:48:24;95011.22;;;6.15;100.00
79075;BME280;68476;42.710;23.388;2024-03-02T04:50:49;95013.50;;;6.12;100.00
79075;BME280;68476;42.710;23.388;2024-03-02T04:53:14;95020.41;;;6.08;100.00
79075;BME280;68476;42.710;23.388;2024-03-02T04:55:40;95013.56;;;6.05;100.00
79075;BME280;68476;42.710;23.388;2024-03-02T04:58:05;95015.00;;;6.08;100.00
79075;BME280;68476;42.710;23.388;2024-03-02T05:00:32;95015.00;;;6.08;100.00
79075;BME280;68476;42.710;23.388;2024-03-02T05:02:57;95019.78;;;6.06;100.00
79075;BME280;68476;42.710;23.388;2024-03-02T05:05:23;95015.63;;;5.96;100.00
79075;BME280;68476;42.710;23.388;2024-03-02T05:07:48;95012.94;;;5.90;100.00
79075;BME280;68476;42.710;23.388;2024-03-02T05:10:14;95018.09;;;5.98;100.00
79075;BME280;68476;42.710;23.388;2024-03-02T05:12:39;95028.53;;;5.94;100.00
79075;BME280;68476;42.710;23.388;2024-03-02T05:15:09;95023.34;;;5.99;100.00
79075;BME280;68476;42.710;23.388;2024-03-02T05:17:39;95034.75;;;6.01;100.00
79075;BME280;68476;42.710;23.388;2024-03-02T05:20:06;95030.19;;;5.95;100.00
79075;BME280;68476;42.710;23.388;2024-03-02T05:22:33;95034.34;;;5.98;100.00
79075;BME280;68476;42.710;23.388;2024-03-02T05:25:00;95031.00;;;5.96;100.00
79075;BME280;68476;42.710;23.388;2024-03-02T05:27:29;95040.78;;;6.04;100.00
79075;BME280;68476;42.710;23.388;2024-03-02T05:29:54;95037.88;;;5.98;100.00
79075;BME280;68476;42.710;23.388;2024-03-02T05:32:20;95032.03;;;5.95;100.00
79075;BME280;68476;42.710;23.388;2024-03-02T05:34:45;95046.03;;;5.92;100.00
79075;BME280;68476;42.710;23.388;2024-03-02T05:37:11;95047.88;;;5.91;100.00
79075;BME280;68476;42.710;23.388;2024-03-02T05:39:36;95042.28;;;5.93;100.00
79075;BME280;68476;42.710;23.388;2024-03-02T05:42:02;95057.84;;;5.97;100.00
79075;BME280;68476;42.710;23.388;2024-03-02T05:44:28;95060.34;;;5.99;100.00
79075;BME280;68476;42.710;23.388;2024-03-02T05:46:54;95056.63;;;6.00;100.00
79075;BME280;68476;42.710;23.388;2024-03-02T05:49:19;95067.44;;;6.00;100.00
79075;BME280;68476;42.710;23.388;2024-03-02T05:51:44;95055.34;;;5.96;100.00
79075;BME280;68476;42.710;23.388;2024-03-02T05:54:10;95062.84;;;6.00;100.00
79075;BME280;68476;42.710;23.388;2024-03-02T05:56:36;95072.63;;;5.95;100.00
79075;BME280;68476;42.710;23.388;2024-03-02T05:59:01;95073.47;;;6.02;100.00
79075;BME280;68476;42.710;23.388;2024-03-02T06:01:42;95065.56;;;6.00;100.00
79075;BME280;68476;42.710;23.388;2024-03-02T06:04:11;95078.25;;;6.00;100.00
79075;BME280;68476;42.710;23.388;2024-03-02T06:06:37;95068.06;;;6.09;100.00
79075;BME280;68476;42.710;23.388;2024-03-02T06:09:03;95068.69;;;6.04;100.00
79075;BME280;68476;42.710;23.388;2024-03-02T06:11:39;95068.88;;;6.03;100.00
79075;BME280;68476;42.710;23.388;2024-03-02T06:14:08;95069.28;;;6.06;100.00
79075;BME280;68476;42.710;23.388;2024-03-02T06:16:34;95063.88;;;6.06;100.00
79075;BME280;68476;42.710;23.388;2024-03-02T06:19:00;95070.13;;;6.07;100.00
79075;BME280;68476;42.710;23.388;2024-03-02T06:21:26;95066.56;;;6.13;100.00
79075;BME280;68476;42.710;23.388;2024-03-02T06:23:52;95071.78;;;6.08;100.00
79075;BME280;68476;42.710;23.388;2024-03-02T06:26:18;95067.59;;;6.12;100.00
79075;BME280;68476;42.710;23.388;2024-03-02T06:28:44;95077.59;;;6.11;100.00
79075;BME280;68476;42.710;23.388;2024-03-02T06:31:10;95070.75;;;6.15;100.00
79075;BME280;68476;42.710;23.388;2024-03-02T06:33:35;95076.34;;;6.14;100.00
79075;BME280;68476;42.710;23.388;2024-03-02T06:36:01;95075.91;;;6.17;100.00
79075;BME280;68476;42.710;23.388;2024-03-02T06:38:27;95075.69;;;6.19;100.00
79075;BME280;68476;42.710;23.388;2024-03-02T06:40:52;95073.41;;;6.22;100.00
79075;BME280;68476;42.710;23.388;2024-03-02T06:43:18;95071.75;;;6.21;100.00
79075;BME280;68476;42.710;23.388;2024-03-02T06:45:48;95085.47;;;6.26;100.00
79075;BME280;68476;42.710;23.388;2024-03-02T06:48:14;95083.78;;;6.25;100.00
79075;BME280;68476;42.710;23.388;2024-03-02T06:50:43;95086.47;;;6.32;100.00
79075;BME280;68476;42.710;23.388;2024-03-02T06:53:09;95078.56;;;6.37;100.00
79075;BME280;68476;42.710;23.388;2024-03-02T06:55:34;95078.69;;;6.49;100.00
79075;BME280;68476;42.710;23.388;2024-03-02T06:58:00;95087.88;;;6.48;100.00
79075;BME280;68476;42.710;23.388;2024-03-02T07:00:25;95089.13;;;6.45;100.00
79075;BME280;68476;42.710;23.388;2024-03-02T07:02:51;95091.81;;;6.52;100.00
79075;BME280;68476;42.710;23.388;2024-03-02T07:05:17;95091.22;;;6.43;100.00
79075;BME280;68476;42.710;23.388;2024-03-02T07:07:42;95094.50;;;6.59;100.00
79075;BME280;68476;42.710;23.388;2024-03-02T07:10:08;95097.75;;;6.74;100.00
79075;BME280;68476;42.710;23.388;2024-03-02T07:12:33;95098.22;;;6.65;100.00
79075;BME280;68476;42.710;23.388;2024-03-02T07:14:59;95091.56;;;6.60;100.00
79075;BME280;68476;42.710;23.388;2024-03-02T07:17:31;95096.56;;;6.57;100.00
79075;BME280;68476;42.710;23.388;2024-03-02T07:19:57;95092.75;;;6.71;100.00
79075;BME280;68476;42.710;23.388;2024-03-02T07:22:23;95103.25;;;6.54;100.00
79075;BME280;68476;42.710;23.388;2024-03-02T07:24:48;95100.13;;;6.57;100.00
79075;BME280;68476;42.710;23.388;2024-03-02T07:27:15;95099.94;;;6.52;100.00
79075;BME280;68476;42.710;23.388;2024-03-02T07:29:41;95097.78;;;6.68;100.00
79075;BME280;68476;42.710;23.388;2024-03-02T07:32:08;95104.88;;;6.69;100.00
79075;BME280;68476;42.710;23.388;2024-03-02T07:34:33;95105.88;;;6.74;100.00
79075;BME280;68476;42.710;23.388;2024-03-02T07:36:59;95099.63;;;6.74;100.00
79075;BME280;68476;42.710;23.388;2024-03-02T07:39:25;95108.41;;;6.69;100.00
79075;BME280;68476;42.710;23.388;2024-03-02T07:41:51;95110.84;;;6.77;100.00
79075;BME280;68476;42.710;23.388;2024-03-02T07:44:16;95111.31;;;6.68;100.00
79075;BME280;68476;42.710;23.388;2024-03-02T07:46:44;95113.34;;;6.79;100.00
79075;BME280;68476;42.710;23.388;2024-03-02T07:49:12;95114.19;;;6.73;100.00
79075;BME280;68476;42.710;23.388;2024-03-02T07:51:38;95117.72;;;6.80;100.00
79075;BME280;68476;42.710;23.388;2024-03-02T07:54:04;95116.03;;;6.86;100.00
79075;BME280;68476;42.710;23.388;2024-03-02T07:56:29;95123.13;;;6.80;100.00
79075;BME280;68476;42.710;23.388;2024-03-02T07:58:55;95120.22;;;6.82;100.00
79075;BME280;68476;42.710;23.388;2024-03-02T08:01:22;95121.09;;;6.75;100.00
79075;BME280;68476;42.710;23.388;2024-03-02T08:03:48;95130.22;;;6.81;100.00
79075;BME280;68476;42.710;23.388;2024-03-02T08:06:16;95120.59;;;6.85;100.00
79075;BME280;68476;42.710;23.388;2024-03-02T08:08:42;95130.19;;;6.88;100.00
79075;BME280;68476;42.710;23.388;2024-03-02T08:11:07;95125.41;;;6.83;100.00
79075;BME280;68476;42.710;23.388;2024-03-02T08:13:32;95122.63;;;6.97;100.00
79075;BME280;68476;42.710;23.388;2024-03-02T08:15:58;95125.59;;;6.88;100.00
79075;BME280;68476;42.710;23.388;2024-03-02T08:18:24;95129.78;;;6.84;100.00
79075;BME280;68476;42.710;23.388;2024-03-02T08:20:50;95135.38;;;6.89;100.00
79075;BME280;68476;42.710;23.388;2024-03-02T08:23:15;95134.75;;;6.87;100.00
79075;BME280;68476;42.710;23.388;2024-03-02T08:25:41;95127.38;;;7.01;100.00
79075;BME280;68476;42.710;23.388;2024-03-02T08:28:07;95127.16;;;7.09;100.00
79075;BME280;68476;42.710;23.388;2024-03-02T08:30:33;95134.44;;;7.09;100.00
79075;BME280;68476;42.710;23.388;2024-03-02T08:32:58;95120.88;;;7.09;100.00
79075;BME280;68476;42.710;23.388;2024-03-02T08:35:24;95127.50;;;7.20;100.00
79075;BME280;68476;42.710;23.388;2024-03-02T08:37:49;95121.47;;;7.18;100.00
79075;BME280;68476;42.710;23.388;2024-03-02T08:40:15;95123.75;;;7.21;100.00
79075;BME280;68476;42.710;23.388;2024-03-02T08:42:41;95125.94;;;7.31;100.00
79075;BME280;68476;42.710;23.388;2024-03-02T08:45:07;95128.22;;;7.34;100.00
79075;BME280;68476;42.710;23.388;2024-03-02T08:47:33;95126.94;;;7.36;100.00
79075;BME280;68476;42.710;23.388;2024-03-02T08:49:59;95126.09;;;7.43;100.00
79075;BME280;68476;42.710;23.388;2024-03-02T08:52:26;95123.72;;;7.53;100.00
79075;BME280;68476;42.710;23.388;2024-03-02T08:54:51;95123.47;;;7.54;100.00
79075;BME280;68476;42.710;23.388;2024-03-02T08:57:17;95127.50;;;7.70;100.00
79075;BME280;68476;42.710;23.388;2024-03-02T08:59:42;95122.66;;;7.79;100.00
79075;BME280;68476;42.710;23.388;2024-03-02T09:02:09;95116.94;;;7.62;100.00
79075;BME280;68476;42.710;23.388;2024-03-02T09:04:34;95125.09;;;7.62;100.00
79075;BME280;68476;42.710;23.388;2024-03-02T09:07:00;95121.81;;;7.79;100.00
79075;BME280;68476;42.710;23.388;2024-03-02T09:09:25;95120.72;;;7.86;100.00
79075;BME280;68476;42.710;23.388;2024-03-02T09:11:51;95122.53;;;7.93;100.00
79075;BME280;68476;42.710;23.388;2024-03-02T09:14:16;95129.78;;;7.99;100.00
79075;BME280;68476;42.710;23.388;2024-03-02T09:16:42;95129.66;;;7.87;100.00
79075;BME280;68476;42.710;23.388;2024-03-02T09:19:08;95135.41;;;7.97;100.00
79075;BME280;68476;42.710;23.388;2024-03-02T09:21:34;95135.41;;;7.97;100.00
79075;BME280;68476;42.710;23.388;2024-03-02T09:24:00;95134.75;;;8.02;100.00
79075;BME280;68476;42.710;23.388;2024-03-02T09:26:27;95137.56;;;8.14;100.00
79075;BME280;68476;42.710;23.388;2024-03-02T09:28:53;95133.75;;;8.22;100.00
79075;BME280;68476;42.710;23.388;2024-03-02T09:31:18;95138.25;;;8.28;100.00
79075;BME280;68476;42.710;23.388;2024-03-02T09:33:44;95136.59;;;8.27;100.00
79075;BME280;68476;42.710;23.388;2024-03-02T09:36:22;95135.66;;;8.14;100.00
79075;BME280;68476;42.710;23.388;2024-03-02T09:38:48;95140.72;;;8.29;100.00
79075;BME280;68476;42.710;23.388;2024-03-02T09:41:14;95147.63;;;8.32;100.00
79075;BME280;68476;42.710;23.388;2024-03-02T09:43:40;95143.69;;;8.28;100.00
79075;BME280;68476;42.710;23.388;2024-03-02T09:46:08;95142.19;;;8.32;100.00
79075;BME280;68476;42.710;23.388;2024-03-02T09:48:34;95137.94;;;8.36;100.00
79075;BME280;68476;42.710;23.388;2024-03-02T09:51:00;95141.28;;;8.20;100.00
79075;BME280;68476;42.710;23.388;2024-03-02T09:53:31;95144.72;;;8.08;100.00
79075;BME280;68476;42.710;23.388;2024-03-02T09:55:59;95136.16;;;8.30;100.00
79075;BME280;68476;42.710;23.388;2024-03-02T09:58:25;95141.09;;;8.14;100.00
79075;BME280;68476;42.710;23.388;2024-03-02T10:00:50;95140.41;;;8.19;100.00
79075;BME280;68476;42.710;23.388;2024-03-02T10:03:18;95140.53;;;8.31;100.00
79075;BME280;68476;42.710;23.388;2024-03-02T10:05:44;95143.25;;;8.31;100.00
79075;BME280;68476;42.710;23.388;2024-03-02T10:08:09;95131.78;;;8.29;100.00
79075;BME280;68476;42.710;23.388;2024-03-02T10:10:39;95134.84;;;8.32;100.00
79075;BME280;68476;42.710;23.388;2024-03-02T10:13:10;95134.53;;;8.66;100.00
79075;BME280;68476;42.710;23.388;2024-03-02T10:15:36;95130.78;;;8.79;100.00
79075;BME280;68476;42.710;23.388;2024-03-02T10:18:03;95135.19;;;8.80;100.00
79075;BME280;68476;42.710;23.388;2024-03-02T10:20:29;95125.78;;;8.94;100.00
79075;BME280;68476;42.710;23.388;2024-03-02T10:22:55;95126.63;;;8.95;100.00
79075;BME280;68476;42.710;23.388;2024-03-02T10:25:33;95138.53;;;8.63;100.00
79075;BME280;68476;42.710;23.388;2024-03-02T10:27:59;95132.16;;;9.19;100.00
79075;BME280;68476;42.710;23.388;2024-03-02T10:30:26;95128.31;;;9.38;100.00
79075;BME280;68476;42.710;23.388;2024-03-02T10:32:53;95132.38;;;8.87;100.00
79075;BME280;68476;42.710;23.388;2024-03-02T10:35:20;95133.88;;;9.01;100.00
79075;BME280;68476;42.710;23.388;2024-03-02T10:37:47;95129.84;;;9.34;100.00
79075;BME280;68476;42.710;23.388;2024-03-02T10:40:13;95120.16;;;9.38;100.00
79075;BME280;68476;42.710;23.388;2024-03-02T10:42:41;95121.47;;;9.05;100.00
79075;BME280;68476;42.710;23.388;2024-03-02T10:45:09;95125.97;;;8.81;100.00
79075;BME280;68476;42.710;23.388;2024-03-02T10:47:37;95126.25;;;9.22;100.00
79075;BME280;68476;42.710;23.388;2024-03-02T10:50:04;95124.19;;;9.05;100.00
79075;BME280;68476;42.710;23.388;2024-03-02T10:52:34;95120.47;;;9.18;100.00
79075;BME280;68476;42.710;23.388;2024-03-02T10:55:00;95117.59;;;9.13;100.00
79075;BME280;68476;42.710;23.388;2024-03-02T10:57:26;95121.00;;;9.08;100.00
79075;BME280;68476;42.710;23.388;2024-03-02T11:00:02;95113.91;;;9.07;100.00
79075;BME280;68476;42.710;23.388;2024-03-02T11:02:30;95114.22;;;8.69;100.00
79075;BME280;68476;42.710;23.388;2024-03-02T11:05:00;95116.09;;;8.68;100.00
79075;BME280;68476;42.710;23.388;2024-03-02T11:07:28;95112.34;;;8.69;100.00
79075;BME280;68476;42.710;23.388;2024-03-02T11:09:57;95115.94;;;8.82;100.00
79075;BME280;68476;42.710;23.388;2024-03-02T11:12:31;95119.06;;;8.48;100.00
79075;BME280;68476;42.710;23.388;2024-03-02T11:15:04;95117.84;;;8.62;100.00
79075;BME280;68476;42.710;23.388;2024-03-02T11:17:34;95117.50;;;8.89;100.00
79075;BME280;68476;42.710;23.388;2024-03-02T11:20:00;95114.28;;;8.62;100.00
79075;BME280;68476;42.710;23.388;2024-03-02T11:22:26;95104.41;;;8.68;100.00
79075;BME280;68476;42.710;23.388;2024-03-02T11:24:52;95109.25;;;8.96;100.00
79075;BME280;68476;42.710;23.388;2024-03-02T11:32:58;95113.31;;;8.38;100.00
79075;BME280;68476;42.710;23.388;2024-03-02T11:35:27;95108.84;;;8.62;100.00
79075;BME280;68476;42.710;23.388;2024-03-02T11:37:55;95103.97;;;8.52;100.00
79075;BME280;68476;42.710;23.388;2024-03-02T11:40:28;95108.06;;;8.36;100.00
79075;BME280;68476;42.710;23.388;2024-03-02T11:42:53;95106.16;;;8.62;100.00
79075;BME280;68476;42.710;23.388;2024-03-02T11:45:26;95108.44;;;8.77;100.00
79075;BME280;68476;42.710;23.388;2024-03-02T11:47:54;95114.09;;;8.63;100.00
79075;BME280;68476;42.710;23.388;2024-03-02T11:50:30;95102.38;;;8.63;100.00
79075;BME280;68476;42.710;23.388;2024-03-02T11:52:58;95106.59;;;8.59;100.00
79075;BME280;68476;42.710;23.388;2024-03-02T11:55:25;95112.34;;;8.51;100.00
79075;BME280;68476;42.710;23.388;2024-03-02T11:57:54;95104.28;;;8.62;100.00
79075;BME280;68476;42.710;23.388;2024-03-02T12:00:20;95097.13;;;9.10;100.00
79075;BME280;68476;42.710;23.388;2024-03-02T12:02:47;95100.13;;;9.21;100.00
79075;BME280;68476;42.710;23.388;2024-03-02T12:05:24;95096.53;;;9.08;100.00
79075;BME280;68476;42.710;23.388;2024-03-02T12:07:58;95101.31;;;9.25;100.00
79075;BME280;68476;42.710;23.388;2024-03-02T12:10:25;95095.75;;;9.20;100.00
79075;BME280;68476;42.710;23.388;2024-03-02T12:12:57;95103.66;;;9.52;100.00
79075;BME280;68476;42.710;23.388;2024-03-02T12:15:27;95097.22;;;9.34;100.00
79075;BME280;68476;42.710;23.388;2024-03-02T12:17:57;95099.06;;;9.22;100.00
79075;BME280;68476;42.710;23.388;2024-03-02T12:20:24;95097.56;;;9.38;100.00
79075;BME280;68476;42.710;23.388;2024-03-02T12:22:51;95095.81;;;9.44;100.00
79075;BME280;68476;42.710;23.388;2024-03-02T12:25:19;95095.19;;;9.30;100.00
79075;BME280;68476;42.710;23.388;2024-03-02T12:27:45;95096.50;;;9.27;100.00
79075;BME280;68476;42.710;23.388;2024-03-02T12:30:12;95099.53;;;9.19;100.00
79075;BME280;68476;42.710;23.388;2024-03-02T12:32:40;95102.63;;;8.92;100.00
79075;BME280;68476;42.710;23.388;2024-03-02T12:35:05;95100.00;;;9.16;100.00
79075;BME280;68476;42.710;23.388;2024-03-02T12:37:31;95091.69;;;9.10;100.00
79075;BME280;68476;42.710;23.388;2024-03-02T12:39:57;95098.75;;;9.00;100.00
79075;BME280;68476;42.710;23.388;2024-03-02T12:42:23;95095.22;;;8.99;100.00
79075;BME280;68476;42.710;23.388;2024-03-02T12:44:52;95091.59;;;9.17;100.00
79075;BME280;68476;42.710;23.388;2024-03-02T12:47:20;95098.75;;;9.00;100.00
79075;BME280;68476;42.710;23.388;2024-03-02T12:49:46;95097.13;;;9.10;100.00
79075;BME280;68476;42.710;23.388;2024-03-02T12:52:14;95101.31;;;9.25;100.00